Time;durP1;ratioP1;P1;durP2;ratioP2;P2;SDS_P1;SDS_P2;PMS_P1;PMS_P2;Temp;Humidity;BMP_temperature;BMP_pressure;BME280_temperature;BME280_humidity;BME280_pressure;Samples;Min_cycle;Max_cycle;Signal;HPM_P1;HPM_P2
2022/03/15 00:02:20;;;;;;;43.00;21.00;;;;;-1.58;99268.80;;;;111068;1248;41599;-63
2022/03/15 00:04:51;;;;;;;40.40;20.40;;;;;-1.60;99263.40;;;;110932;1250;41142;-64
2022/03/15 00:07:21;;;;;;;37.80;19.40;;;;;-1.60;99264.80;;;;111048;1248;41368;-62
2022/03/15 00:09:51;;;;;;;42.00;19.60;;;;;-1.70;99265.60;;;;111068;1248;41813;-64
2022/03/15 00:12:23;;;;;;;43.20;18.70;;;;;-1.70;99268.00;;;;110997;1249;41122;-65
2022/03/15 00:14:53;;;;;;;38.70;20.40;;;;;-1.72;99268.20;;;;111140;1247;42030;-65
2022/03/15 00:17:24;;;;;;;43.50;21.40;;;;;-1.80;99266.60;;;;110891;1247;41374;-64
2022/03/15 00:19:55;;;;;;;39.90;20.90;;;;;-1.80;99266.00;;;;111017;1247;41135;-64
2022/03/15 00:22:25;;;;;;;33.00;18.20;;;;;-1.80;99265.80;;;;111128;1247;41140;-64
2022/03/15 00:24:55;;;;;;;32.80;17.20;;;;;-1.84;99266.40;;;;111069;1247;41931;-65
2022/03/15 00:27:25;;;;;;;35.80;18.10;;;;;-1.86;99267.60;;;;110876;1248;41147;-64
2022/03/15 00:29:55;;;;;;;35.20;17.40;;;;;-1.90;99268.80;;;;110996;1247;41475;-64
2022/03/15 00:32:27;;;;;;;30.70;15.10;;;;;-1.90;99267.20;;;;111104;1247;41269;-64
2022/03/15 00:35:01;;;;;;;30.30;16.40;;;;;-1.90;99266.40;;;;111109;1247;41587;-64
2022/03/15 00:37:32;;;;;;;38.80;19.80;;;;;-1.90;99270.80;;;;111043;1249;41273;-63
2022/03/15 00:40:17;;;;;;;41.70;20.00;;;;;-1.92;99286.20;;;;110941;1247;41252;-64
2022/03/15 00:42:56;;;;;;;39.90;18.80;;;;;-2.00;99290.20;;;;111106;1247;41246;-64
2022/03/15 00:45:36;;;;;;;37.60;17.80;;;;;-2.00;99294.00;;;;111065;1248;42383;-65
2022/03/15 00:48:07;;;;;;;35.30;17.50;;;;;-2.10;99289.80;;;;111006;1247;41275;-64
2022/03/15 00:50:39;;;;;;;35.80;17.20;;;;;-2.10;99289.40;;;;111093;1248;41170;-63
2022/03/15 00:53:10;;;;;;;;;;;;;-2.18;99281.80;;;;111199;1247;41738;-63
2022/03/15 00:55:40;;;;;;;34.90;16.80;;;;;-2.20;99274.80;;;;111912;1246;40698;-63
2022/03/15 00:58:11;;;;;;;38.10;18.50;;;;;-2.20;99278.00;;;;111468;1247;40741;-63
2022/03/15 01:00:44;;;;;;;38.70;18.40;;;;;-2.24;99284.40;;;;110914;1247;41164;-63
2022/03/15 01:03:17;;;;;;;33.40;16.50;;;;;-2.30;99282.20;;;;111030;1247;41854;-64
2022/03/15 01:05:47;;;;;;;41.90;21.20;;;;;-2.30;99268.40;;;;111021;1249;42388;-64
2022/03/15 01:08:17;;;;;;;39.60;20.60;;;;;-2.40;99261.80;;;;110988;1247;40718;-63
2022/03/15 01:10:47;;;;;;;35.50;18.80;;;;;-2.40;99262.40;;;;111090;1247;41649;-63
2022/03/15 01:13:18;;;;;;;32.50;17.50;;;;;-2.40;99259.00;;;;110944;1248;41369;-65
2022/03/15 01:15:47;;;;;;;38.20;19.20;;;;;-2.48;99250.80;;;;111097;1248;41589;-64
2022/03/15 01:18:19;;;;;;;42.30;18.70;;;;;-2.50;99241.60;;;;111261;1247;41259;-64
2022/03/15 01:20:51;;;;;;;34.60;18.60;;;;;-2.50;99245.20;;;;110776;1250;42009;-62
2022/03/15 01:23:22;;;;;;;38.00;18.30;;;;;-2.50;99245.80;;;;111059;1247;41791;-63
2022/03/15 01:25:51;;;;;;;33.70;18.10;;;;;-2.60;99247.00;;;;111173;1247;41004;-64
2022/03/15 01:28:22;;;;;;;37.90;18.00;;;;;-2.60;99251.00;;;;111390;1247;40947;-64
2022/03/15 01:30:52;;;;;;;35.80;18.50;;;;;-2.60;99255.80;;;;111220;1247;41630;-63
2022/03/15 01:33:23;;;;;;;40.30;18.80;;;;;-2.66;99256.20;;;;111106;1247;41235;-63
2022/03/15 01:35:53;;;;;;;38.60;18.10;;;;;-2.70;99250.80;;;;111062;1247;41282;-63
2022/03/15 01:38:22;;;;;;;40.10;18.70;;;;;-2.78;99254.80;;;;111033;1247;41363;-65
2022/03/15 01:40:52;;;;;;;40.10;20.00;;;;;-2.80;99254.40;;;;110985;1248;41154;-63
2022/03/15 01:43:22;;;;;;;36.20;18.90;;;;;-2.80;99255.20;;;;110837;1249;41167;-65
2022/03/15 01:45:54;;;;;;;37.00;19.20;;;;;-2.90;99254.80;;;;111017;1247;41473;-63
2022/03/15 01:48:25;;;;;;;37.00;19.00;;;;;-2.92;99256.40;;;;111081;1247;41674;-63
2022/03/15 01:50:55;;;;;;;37.80;18.60;;;;;-3.00;99251.80;;;;111050;1247;41263;-63
2022/03/15 01:53:30;;;;;;;36.70;17.80;;;;;-3.00;99257.20;;;;111081;1246;41744;-63
2022/03/15 01:55:59;;;;;;;;;;;;;-3.10;99254.40;;;;110844;1248;41618;-62
2022/03/15 01:58:29;;;;;;;33.80;15.60;;;;;-3.10;99257.20;;;;111105;1248;41143;-63
2022/03/15 02:01:03;;;;;;;36.40;17.10;;;;;-3.20;99264.20;;;;111136;1247;41269;-64
2022/03/15 02:03:33;;;;;;;37.20;18.50;;;;;-3.20;99268.00;;;;111036;1247;41598;-63
2022/03/15 02:06:05;;;;;;;38.10;18.20;;;;;-3.20;99263.80;;;;110918;1247;41575;-64
2022/03/15 02:08:35;;;;;;;35.70;18.40;;;;;-3.20;99262.80;;;;111100;1247;41266;-63
2022/03/15 02:11:08;;;;;;;47.20;23.00;;;;;-3.24;99263.40;;;;111036;1248;41184;-64
2022/03/15 02:13:40;;;;;;;44.60;23.50;;;;;-3.20;99256.20;;;;111112;1247;41595;-63
2022/03/15 02:16:09;;;;;;;49.80;25.10;;;;;-3.20;99255.00;;;;111055;1247;41633;-64
2022/03/15 02:18:39;;;;;;;44.40;23.70;;;;;-3.20;99250.40;;;;111043;1247;41175;-64
2022/03/15 02:21:10;;;;;;;48.10;22.70;;;;;-3.20;99245.60;;;;111039;1247;41743;-63
2022/03/15 02:23:40;;;;;;;45.40;21.10;;;;;-3.20;99246.60;;;;110942;1248;41250;-64
2022/03/15 02:26:10;;;;;;;44.10;20.50;;;;;-3.20;99245.60;;;;111136;1246;41266;-64
2022/03/15 02:28:40;;;;;;;43.40;20.60;;;;;-3.20;99239.20;;;;111159;1247;41610;-64
2022/03/15 02:31:10;;;;;;;38.20;19.30;;;;;-3.20;99248.20;;;;111047;1247;41453;-63
2022/03/15 02:33:41;;;;;;;46.80;20.00;;;;;-3.28;99245.20;;;;111065;1247;41162;-63
2022/03/15 02:36:13;;;;;;;42.70;20.60;;;;;-3.30;99238.20;;;;111090;1247;41137;-63
2022/03/15 02:38:45;;;;;;;37.20;20.50;;;;;-3.30;99223.20;;;;111049;1250;41123;-64
2022/03/15 02:41:15;;;;;;;40.60;20.50;;;;;-3.32;99220.80;;;;111030;1246;41366;-64
2022/03/15 02:43:44;;;;;;;47.80;20.40;;;;;-3.38;99219.80;;;;110892;1247;41994;-64
2022/03/15 02:46:15;;;;;;;34.00;17.60;;;;;-3.40;99226.40;;;;110957;1247;41172;-63
2022/03/15 02:48:45;;;;;;;32.70;16.70;;;;;-3.40;99224.40;;;;110857;1250;41198;-63
2022/03/15 02:51:15;;;;;;;35.10;16.60;;;;;-3.40;99214.60;;;;111110;1247;41992;-64
2022/03/15 02:53:46;;;;;;;39.30;17.70;;;;;-3.46;99214.40;;;;110942;1247;41975;-63
2022/03/15 02:56:19;;;;;;;30.80;16.60;;;;;-3.50;99212.60;;;;111105;1246;41253;-63
2022/03/15 02:58:49;;;;;;;35.90;17.20;;;;;-3.50;99211.00;;;;111118;1247;41163;-63
2022/03/15 03:01:20;;;;;;;32.70;16.10;;;;;-3.50;99213.60;;;;111013;1246;41269;-63
2022/03/15 03:03:53;;;;;;;34.60;17.70;;;;;-3.50;99223.60;;;;111087;1247;41145;-64
2022/03/15 03:06:24;;;;;;;37.00;18.40;;;;;-3.50;99225.80;;;;111125;1247;42210;-63
2022/03/15 03:08:54;;;;;;;33.30;17.20;;;;;-3.58;99222.60;;;;111041;1248;41237;-63
2022/03/15 03:11:25;;;;;;;33.90;16.50;;;;;-3.60;99223.60;;;;111069;1248;41170;-62
2022/03/15 03:13:59;;;;;;;38.60;19.50;;;;;-3.60;99242.40;;;;111128;1246;41492;-64
2022/03/15 03:16:30;;;;;;;37.80;19.70;;;;;-3.60;99241.60;;;;111004;1247;41593;-65
2022/03/15 03:19:00;;;;;;;43.30;19.70;;;;;-3.60;99231.60;;;;111163;1248;41697;-64
2022/03/15 03:21:31;;;;;;;37.60;19.20;;;;;-3.70;99235.60;;;;111114;1247;42282;-63
2022/03/15 03:24:02;;;;;;;32.90;17.30;;;;;-3.70;99246.00;;;;111075;1247;41631;-63
2022/03/15 03:26:37;;;;;;;36.00;16.40;;;;;-3.70;99240.80;;;;111111;1247;41273;-63
2022/03/15 03:29:09;;;;;;;28.60;15.30;;;;;-3.70;99242.80;;;;110870;1248;41629;-63
2022/03/15 03:31:41;;;;;;;30.60;15.50;;;;;-3.78;99250.00;;;;111006;1247;43191;-62
2022/03/15 03:34:11;;;;;;;32.30;15.70;;;;;-3.80;99252.20;;;;111075;1248;42570;-63
2022/03/15 03:36:40;;;;;;;;;;;;;-3.80;99249.60;;;;111048;1248;41529;-63
2022/03/15 03:39:25;;;;;;;26.20;13.50;;;;;-3.90;99252.60;;;;111055;1248;41246;-63
2022/03/15 03:41:56;;;;;;;31.20;15.20;;;;;-3.88;99258.00;;;;110995;1248;41286;-64
2022/03/15 03:44:26;;;;;;;28.90;15.00;;;;;-3.90;99260.20;;;;111135;1247;41148;-64
2022/03/15 03:46:55;;;;;;;34.90;17.00;;;;;-3.90;99265.40;;;;111013;1248;41232;-62
2022/03/15 03:49:26;;;;;;;34.90;16.30;;;;;-3.90;99271.60;;;;111130;1247;42203;-63
2022/03/15 03:51:57;;;;;;;36.00;16.80;;;;;-3.90;99266.00;;;;111043;1248;42139;-63
2022/03/15 03:54:29;;;;;;;34.40;17.30;;;;;-3.90;99264.20;;;;111128;1247;41620;-63
2022/03/15 03:56:58;;;;;;;35.30;16.50;;;;;-3.90;99268.20;;;;111079;1248;41157;-62
2022/03/15 03:59:28;;;;;;;29.50;14.70;;;;;-3.94;99265.40;;;;110874;1250;41340;-64
2022/03/15 04:01:58;;;;;;;34.00;15.90;;;;;-3.92;99264.40;;;;111011;1248;41147;-63
2022/03/15 04:04:28;;;;;;;29.80;16.00;;;;;-3.90;99267.20;;;;111107;1247;41604;-63
2022/03/15 04:07:00;;;;;;;31.70;15.80;;;;;-3.90;99257.20;;;;111034;1247;42377;-63
2022/03/15 04:09:29;;;;;;;38.10;17.90;;;;;-3.90;99253.40;;;;111056;1247;41257;-63
2022/03/15 04:12:03;;;;;;;33.90;17.00;;;;;-3.90;99250.40;;;;110948;1248;41257;-64
2022/03/15 04:14:37;;;;;;;33.60;17.10;;;;;-3.90;99248.60;;;;111051;1248;41136;-64
2022/03/15 04:17:07;;;;;;;31.80;16.00;;;;;-3.90;99248.20;;;;111103;1247;41143;-63
2022/03/15 04:19:37;;;;;;;28.70;15.60;;;;;-3.90;99259.40;;;;110995;1247;42904;-63
2022/03/15 04:22:07;;;;;;;30.90;15.20;;;;;-3.90;99271.40;;;;111050;1247;41888;-64
2022/03/15 04:24:41;;;;;;;31.60;15.30;;;;;-3.90;99277.60;;;;110824;1249;41283;-63
2022/03/15 04:27:11;;;;;;;32.30;16.40;;;;;-3.92;99273.60;;;;111103;1247;41551;-63
2022/03/15 04:29:42;;;;;;;32.60;16.40;;;;;-3.92;99277.60;;;;110948;1248;41687;-64
2022/03/15 04:32:12;;;;;;;44.20;20.10;;;;;-4.00;99278.80;;;;111065;1247;41246;-63
2022/03/15 04:34:45;;;;;;;40.20;20.50;;;;;-4.00;99284.60;;;;111113;1246;41492;-62
2022/03/15 04:37:24;;;;;;;37.30;18.10;;;;;-4.00;99283.20;;;;111068;1246;41248;-64
2022/03/15 04:39:57;;;;;;;42.80;21.10;;;;;-4.02;99280.00;;;;111083;1247;41268;-63
2022/03/15 04:42:27;;;;;;;36.40;18.20;;;;;-4.10;99280.60;;;;111110;1247;41355;-65
2022/03/15 04:44:57;;;;;;;38.10;18.70;;;;;-4.10;99282.60;;;;111121;1247;41115;-64
2022/03/15 04:47:27;;;;;;;35.20;18.20;;;;;-4.10;99289.60;;;;111144;1247;41197;-63
2022/03/15 04:49:57;;;;;;;38.10;18.20;;;;;-4.10;99280.60;;;;110809;1247;41177;-64
2022/03/15 04:52:27;;;;;;;37.40;17.30;;;;;-4.04;99281.60;;;;111105;1247;41178;-64
2022/03/15 04:54:57;;;;;;;30.50;15.30;;;;;-4.00;99283.40;;;;110935;1247;41567;-64
2022/03/15 04:57:27;;;;;;;30.70;15.80;;;;;-3.92;99274.80;;;;111190;1246;41714;-64
2022/03/15 04:59:57;;;;;;;30.40;16.40;;;;;-3.86;99265.80;;;;110781;1247;41600;-64
2022/03/15 05:02:28;;;;;;;33.50;16.70;;;;;-3.80;99265.80;;;;111384;1246;41269;-65
2022/03/15 05:05:00;;;;;;;35.90;16.70;;;;;-3.70;99264.20;;;;111024;1247;41149;-65
2022/03/15 05:07:40;;;;;;;32.10;15.70;;;;;-3.60;99253.40;;;;111097;1247;41124;-64
2022/03/15 05:13:00;;;;;;;39.30;21.40;;;;;-3.30;99246.60;;;;111160;1245;41607;-65
2022/03/15 05:15:30;;;;;;;;;;;;;-3.10;99248.60;;;;111006;1249;41619;-64
2022/03/15 05:18:04;;;;;;;34.40;16.50;;;;;-3.00;99241.40;;;;111089;1246;41112;-65
2022/03/15 05:20:34;;;;;;;32.30;15.60;;;;;-2.80;99250.80;;;;110937;1248;41136;-65
2022/03/15 05:23:03;;;;;;;34.80;16.30;;;;;-2.60;99249.20;;;;111096;1247;42130;-65
2022/03/15 05:25:33;;;;;;;39.60;20.00;;;;;-2.40;99238.20;;;;110789;1250;41152;-65
2022/03/15 05:28:03;;;;;;;42.40;20.40;;;;;-2.20;99230.40;;;;111090;1247;41152;-66
2022/03/15 05:30:32;;;;;;;41.70;20.40;;;;;-1.98;99235.60;;;;110910;1247;41153;-66
2022/03/15 05:33:03;;;;;;;47.70;23.70;;;;;-1.80;99234.40;;;;111011;1245;41149;-65
2022/03/15 05:35:38;;;;;;;55.10;27.00;;;;;-1.70;99231.60;;;;111043;1247;41234;-65
2022/03/15 05:38:10;;;;;;;;;;;;;-1.70;99235.00;;;;111111;1247;42200;-65
2022/03/15 05:40:39;;;;;;;42.10;20.30;;;;;-1.60;99233.40;;;;111098;1247;41159;-65
2022/03/15 05:43:09;;;;;;;35.70;19.40;;;;;-1.38;99231.20;;;;111159;1247;41264;-65
2022/03/15 05:45:38;;;;;;;40.90;20.50;;;;;-1.10;99230.80;;;;111017;1249;41315;-65
2022/03/15 05:48:08;;;;;;;34.70;17.30;;;;;-0.86;99231.00;;;;111036;1247;41156;-65
2022/03/15 05:50:37;;;;;;;53.40;25.30;;;;;-0.60;99230.20;;;;111142;1247;41143;-65
2022/03/15 05:53:07;;;;;;;51.60;27.60;;;;;-0.40;99226.00;;;;111092;1247;41133;-66
2022/03/15 05:55:37;;;;;;;53.80;27.20;;;;;-0.20;99224.00;;;;111022;1247;41752;-65
2022/03/15 05:58:08;;;;;;;;;;;;;-0.06;99240.80;;;;110854;1250;41142;-67
2022/03/15 06:00:38;;;;;;;48.10;25.70;;;;;0.10;99236.60;;;;111115;1246;41617;-65
2022/03/15 06:03:10;;;;;;;54.20;22.80;;;;;0.20;99242.60;;;;111100;1247;41165;-65
2022/03/15 06:05:39;;;;;;;41.30;20.40;;;;;0.30;99245.20;;;;111034;1247;41395;-65
2022/03/15 06:08:10;;;;;;;45.80;22.10;;;;;0.48;99249.40;;;;111041;1247;41477;-66
2022/03/15 06:10:40;;;;;;;45.30;21.20;;;;;0.62;99233.20;;;;111140;1247;41256;-65
2022/03/15 06:13:09;;;;;;;52.60;25.90;;;;;0.80;99239.80;;;;111189;1244;41151;-65
2022/03/15 06:15:42;;;;;;;44.70;22.10;;;;;0.90;99240.60;;;;111159;1247;41138;-65
2022/03/15 06:18:11;;;;;;;41.90;20.30;;;;;0.98;99236.80;;;;110979;1247;41127;-63
2022/03/15 06:20:41;;;;;;;36.50;19.10;;;;;1.10;99241.20;;;;111107;1247;41229;-65
2022/03/15 06:23:11;;;;;;;43.70;21.10;;;;;1.40;99237.00;;;;111117;1247;41143;-66
2022/03/15 06:25:40;;;;;;;39.30;19.00;;;;;1.60;99219.20;;;;110904;1248;41263;-65
2022/03/15 06:28:09;;;;;;;40.50;18.80;;;;;1.90;99223.20;;;;111248;1245;41259;-64
2022/03/15 06:30:39;;;;;;;37.70;18.10;;;;;2.02;99222.60;;;;111137;1246;41472;-66
2022/03/15 06:33:11;;;;;;;37.30;17.60;;;;;2.30;99223.20;;;;110890;1249;41150;-65
2022/03/15 06:35:46;;;;;;;33.70;16.90;;;;;2.56;99233.00;;;;110955;1248;41930;-66
2022/03/15 06:38:15;;;;;;;34.80;15.70;;;;;2.84;99227.20;;;;111141;1247;41609;-65
2022/03/15 06:40:46;;;;;;;39.10;17.30;;;;;3.10;99228.20;;;;111291;1245;41176;-66
2022/03/15 06:43:16;;;;;;;43.70;16.10;;;;;3.20;99230.20;;;;111059;1247;42033;-67
2022/03/15 06:45:46;;;;;;;34.00;15.50;;;;;3.30;99234.20;;;;111103;1247;41253;-65
2022/03/15 06:48:15;;;;;;;31.70;15.90;;;;;3.30;99225.80;;;;111089;1247;41937;-66
2022/03/15 06:50:45;;;;;;;36.00;18.50;;;;;3.54;99220.00;;;;111025;1247;41254;-66
2022/03/15 06:53:14;;;;;;;33.50;15.00;;;;;3.70;99218.80;;;;110811;1250;41272;-65
2022/03/15 06:55:44;;;;;;;36.40;18.40;;;;;4.00;99217.40;;;;110744;1248;41138;-65
2022/03/15 06:58:14;;;;;;;40.30;19.40;;;;;4.20;99219.20;;;;111041;1249;41622;-66
2022/03/15 07:00:44;;;;;;;38.50;18.50;;;;;4.30;99215.80;;;;111045;1249;41146;-66
2022/03/15 07:03:14;;;;;;;35.50;17.70;;;;;4.34;99218.40;;;;111079;1246;41996;-66
2022/03/15 07:05:44;;;;;;;31.10;16.60;;;;;4.40;99201.80;;;;111098;1245;41188;-66
2022/03/15 07:08:14;;;;;;;35.70;16.70;;;;;4.50;99207.00;;;;111179;1247;41151;-66
2022/03/15 07:10:44;;;;;;;30.20;14.70;;;;;4.56;99204.40;;;;111099;1247;41163;-66
2022/03/15 07:13:13;;;;;;;34.00;17.40;;;;;4.60;99209.80;;;;111103;1247;41124;-66
2022/03/15 07:15:42;;;;;;;28.80;13.70;;;;;4.70;99215.20;;;;111085;1247;41557;-67
2022/03/15 07:18:12;;;;;;;33.90;17.20;;;;;4.90;99222.00;;;;111132;1247;41345;-68
2022/03/15 07:20:42;;;;;;;30.80;15.50;;;;;5.00;99219.40;;;;111093;1248;41932;-66
2022/03/15 07:23:11;;;;;;;33.10;15.90;;;;;5.10;99219.20;;;;111147;1246;41233;-66
2022/03/15 07:25:41;;;;;;;33.30;16.60;;;;;5.10;99227.60;;;;110891;1247;41174;-66
2022/03/15 07:28:11;;;;;;;30.60;15.30;;;;;5.00;99218.80;;;;111126;1248;41450;-66
2022/03/15 07:30:40;;;;;;;34.60;16.70;;;;;5.20;99219.00;;;;110664;1247;697715;-67
2022/03/15 07:33:10;;;;;;;30.60;16.30;;;;;5.20;99225.20;;;;111233;1247;42546;-66
2022/03/15 07:35:39;;;;;;;32.10;15.80;;;;;5.22;99228.00;;;;111077;1249;41119;-66
2022/03/15 07:38:08;;;;;;;33.70;15.20;;;;;5.30;99221.80;;;;111104;1247;41625;-66
2022/03/15 07:40:39;;;;;;;34.80;16.00;;;;;5.40;99218.80;;;;111113;1247;41253;-66
2022/03/15 07:43:08;;;;;;;29.10;14.80;;;;;5.40;99230.00;;;;111129;1248;41552;-66
2022/03/15 07:45:38;;;;;;;40.70;15.40;;;;;5.50;99221.40;;;;111039;1247;41254;-66
2022/03/15 07:48:07;;;;;;;37.20;18.00;;;;;5.60;99221.20;;;;110829;1250;42388;-66
2022/03/15 07:50:37;;;;;;;30.80;14.40;;;;;5.70;99219.80;;;;111045;1247;41142;-65
2022/03/15 07:53:06;;;;;;;30.30;15.10;;;;;5.66;99219.00;;;;111042;1247;41617;-66
2022/03/15 07:55:36;;;;;;;31.00;14.10;;;;;5.70;99217.60;;;;111105;1248;41279;-65
2022/03/15 07:58:05;;;;;;;35.80;18.50;;;;;5.80;99217.40;;;;111056;1248;41146;-66
2022/03/15 08:00:34;;;;;;;35.20;16.90;;;;;5.90;99222.20;;;;111123;1248;41177;-66
2022/03/15 08:03:04;;;;;;;37.30;18.50;;;;;5.90;99223.00;;;;111073;1247;41256;-66
2022/03/15 08:05:33;;;;;;;33.10;15.70;;;;;6.00;99216.20;;;;111125;1247;41227;-66
2022/03/15 08:08:06;;;;;;;29.70;15.20;;;;;6.00;99210.60;;;;110910;1247;41577;-66
2022/03/15 08:10:39;;;;;;;35.40;16.70;;;;;6.10;99211.80;;;;111128;1248;41187;-65
2022/03/15 08:13:08;;;;;;;34.80;17.50;;;;;6.20;99219.40;;;;111021;1248;41629;-66
2022/03/15 08:15:37;;;;;;;30.80;16.10;;;;;6.20;99215.00;;;;111074;1248;41145;-65
2022/03/15 08:18:07;;;;;;;29.30;15.90;;;;;6.20;99218.80;;;;110899;1248;41249;-66
2022/03/15 08:20:40;;;;;;;34.50;17.40;;;;;6.34;99216.80;;;;111076;1247;41270;-66
2022/03/15 08:23:12;;;;;;;35.00;18.80;;;;;6.48;99214.20;;;;111104;1247;41488;-66
2022/03/15 08:25:41;;;;;;;33.80;18.80;;;;;6.50;99207.60;;;;111086;1248;41151;-65
2022/03/15 08:28:11;;;;;;;35.20;18.20;;;;;6.70;99208.80;;;;111048;1248;41860;-67
2022/03/15 08:30:41;;;;;;;35.50;18.30;;;;;6.80;99210.60;;;;111125;1247;42082;-67
2022/03/15 08:33:11;;;;;;;30.80;16.40;;;;;6.90;99201.20;;;;111154;1247;41444;-66
2022/03/15 08:35:40;;;;;;;37.60;19.90;;;;;7.00;99198.80;;;;111060;1247;41638;-66
2022/03/15 08:38:11;;;;;;;37.30;19.70;;;;;7.00;99206.60;;;;111094;1248;41150;-66
2022/03/15 08:40:40;;;;;;;38.30;18.80;;;;;6.90;99218.20;;;;111147;1247;41789;-65
2022/03/15 08:43:10;;;;;;;40.60;19.90;;;;;7.00;99216.00;;;;111101;1247;41146;-66
2022/03/15 08:45:39;;;;;;;36.90;19.90;;;;;7.10;99210.40;;;;111119;1247;41382;-67
2022/03/15 08:48:08;;;;;;;43.30;21.30;;;;;6.90;99211.60;;;;111006;1248;42224;-66
2022/03/15 08:50:38;;;;;;;42.00;21.90;;;;;6.90;99214.80;;;;111040;1247;41150;-67
2022/03/15 08:53:10;;;;;;;53.10;24.50;;;;;6.70;99207.20;;;;111109;1246;41829;-64
2022/03/15 08:55:41;;;;;;;44.60;23.00;;;;;6.60;99208.00;;;;111073;1247;41140;-66
2022/03/15 08:58:10;;;;;;;49.20;22.20;;;;;6.48;99207.40;;;;110994;1249;41150;-67
2022/03/15 09:00:41;;;;;;;52.80;27.00;;;;;6.40;99210.80;;;;111120;1248;41715;-65
2022/03/15 09:03:10;;;;;;;56.90;22.50;;;;;6.40;99203.40;;;;111131;1247;41133;-66
2022/03/15 09:05:40;;;;;;;55.80;26.60;;;;;6.50;99204.60;;;;111144;1247;41154;-66
2022/03/15 09:08:11;;;;;;;54.40;25.50;;;;;6.50;99204.60;;;;111112;1247;41186;-66
2022/03/15 09:10:42;;;;;;;53.10;26.70;;;;;6.60;99204.40;;;;111122;1247;41594;-66
2022/03/15 09:13:11;;;;;;;59.50;26.00;;;;;6.70;99206.80;;;;111086;1247;41132;-66
2022/03/15 09:15:40;;;;;;;48.20;24.70;;;;;6.72;99210.20;;;;111133;1248;41908;-66
2022/03/15 09:18:10;;;;;;;42.10;22.10;;;;;6.90;99203.40;;;;111111;1247;42235;-64
2022/03/15 09:20:41;;;;;;;44.80;22.00;;;;;7.22;99196.60;;;;111123;1247;41249;-66
2022/03/15 09:23:10;;;;;;;48.30;20.90;;;;;7.50;99191.20;;;;111012;1247;41794;-67
2022/03/15 09:25:39;;;;;;;49.60;23.90;;;;;7.82;99180.20;;;;111116;1247;41930;-66
2022/03/15 09:28:09;;;;;;;51.80;23.00;;;;;8.16;99177.80;;;;111170;1244;41621;-66
2022/03/15 09:30:39;;;;;;;50.10;25.70;;;;;8.40;99165.00;;;;111147;1249;42202;-67
2022/03/15 09:33:08;;;;;;;51.40;27.00;;;;;8.60;99161.40;;;;111108;1247;41140;-68
2022/03/15 09:35:39;;;;;;;52.80;24.40;;;;;8.96;99155.00;;;;111174;1247;41132;-67
2022/03/15 09:38:09;;;;;;;46.70;24.30;;;;;9.34;99147.40;;;;111080;1248;41153;-66
2022/03/15 09:40:39;;;;;;;49.30;23.30;;;;;9.64;99140.60;;;;111156;1246;41153;-66
2022/03/15 09:43:09;;;;;;;37.60;19.70;;;;;9.80;99143.20;;;;111117;1246;41341;-66
2022/03/15 09:45:41;;;;;;;34.20;18.40;;;;;10.04;99142.60;;;;111057;1247;41129;-65
2022/03/15 09:48:15;;;;;;;;;;;;;10.30;99138.60;;;;111092;1248;41258;-65
2022/03/15 09:50:48;;;;;;;35.00;16.50;;;;;10.20;99135.20;;;;111115;1248;41181;-67
2022/03/15 09:53:18;;;;;;;35.30;17.30;;;;;10.50;99130.80;;;;111073;1247;41177;-67
2022/03/15 09:55:47;;;;;;;30.70;15.20;;;;;10.70;99127.60;;;;111034;1249;41900;-65
2022/03/15 09:58:21;;;;;;;28.80;13.80;;;;;11.00;99114.20;;;;111090;1247;41141;-67
2022/03/15 10:00:53;;;;;;;29.30;15.60;;;;;11.52;99111.20;;;;111115;1248;41693;-66
2022/03/15 10:03:23;;;;;;;31.30;16.60;;;;;12.10;99101.60;;;;110868;1250;41533;-67
2022/03/15 10:05:53;;;;;;;39.10;19.40;;;;;12.40;99096.60;;;;111158;1247;41170;-65
2022/03/15 10:08:22;;;;;;;36.90;19.80;;;;;12.70;99096.40;;;;111073;1247;42005;-67
2022/03/15 10:10:53;;;;;;;35.70;18.60;;;;;13.20;99089.20;;;;111026;1247;41127;-67
2022/03/15 10:13:22;;;;;;;29.60;16.90;;;;;13.94;99086.20;;;;111049;1248;41154;-66
2022/03/15 10:15:55;;;;;;;32.20;17.90;;;;;14.46;99081.80;;;;110847;1248;42082;-67
2022/03/15 10:18:24;;;;;;;33.80;17.00;;;;;15.46;99067.80;;;;111136;1247;41580;-66
2022/03/15 10:20:56;;;;;;;39.00;18.20;;;;;16.14;99066.80;;;;110962;1248;41757;-66
2022/03/15 10:23:29;;;;;;;;;;;;;15.90;99063.60;;;;110980;1249;41620;-66
2022/03/15 10:25:59;;;;;;;32.90;17.20;;;;;15.98;99055.00;;;;111139;1247;41379;-66
2022/03/15 10:28:29;;;;;;;31.00;18.80;;;;;16.20;99049.80;;;;111061;1247;41263;-66
2022/03/15 10:30:59;;;;;;;42.30;16.70;;;;;16.50;99040.00;;;;111079;1248;41351;-67
2022/03/15 10:33:28;;;;;;;33.30;17.30;;;;;16.76;99034.60;;;;111083;1247;41127;-66
2022/03/15 10:35:58;;;;;;;29.70;15.30;;;;;16.92;99026.20;;;;111151;1247;41299;-66
2022/03/15 10:38:27;;;;;;;31.90;16.50;;;;;17.64;99016.80;;;;111095;1248;42003;-67
2022/03/15 10:40:57;;;;;;;29.40;15.60;;;;;18.38;99009.00;;;;111104;1246;41488;-65
2022/03/15 10:43:29;;;;;;;32.50;15.80;;;;;18.60;99003.00;;;;111020;1249;41898;-66
2022/03/15 10:45:59;;;;;;;28.50;15.00;;;;;18.82;99003.20;;;;110887;1250;41390;-67
2022/03/15 10:48:32;;;;;;;34.10;15.40;;;;;18.62;98998.60;;;;111136;1247;41130;-66
2022/03/15 10:51:14;;;;;;;32.50;16.70;;;;;18.80;98994.40;;;;111019;1248;41127;-67
2022/03/15 10:53:47;;;;;;;27.70;16.00;;;;;18.74;98986.40;;;;111076;1247;41373;-66
2022/03/15 10:56:22;;;;;;;29.00;17.30;;;;;18.56;98985.60;;;;111094;1247;41491;-66
2022/03/15 10:58:53;;;;;;;31.00;17.50;;;;;19.24;98973.40;;;;111107;1248;41146;-67
2022/03/15 11:01:24;;;;;;;30.30;16.60;;;;;18.80;98976.60;;;;111075;1247;41628;-66
2022/03/15 11:03:58;;;;;;;31.20;16.10;;;;;18.72;98972.00;;;;111142;1247;41140;-67
2022/03/15 11:06:38;;;;;;;31.70;17.60;;;;;19.40;98962.40;;;;111048;1248;41602;-65
2022/03/15 11:09:16;;;;;;;37.20;21.00;;;;;19.82;98959.00;;;;111099;1247;41631;-67
2022/03/15 11:12:06;;;;;;;34.60;17.10;;;;;19.42;98961.60;;;;111109;1248;41240;-66
2022/03/15 11:14:51;;;;;;;29.50;17.00;;;;;18.92;98948.40;;;;111109;1247;41140;-67
2022/03/15 11:17:24;;;;;;;30.50;16.00;;;;;19.38;98952.40;;;;111051;1247;41155;-67
2022/03/15 11:19:58;;;;;;;32.00;17.40;;;;;19.48;98940.60;;;;111055;1248;41001;-67
2022/03/15 11:22:34;;;;;;;30.20;17.00;;;;;19.74;98946.20;;;;111123;1247;41254;-66
2022/03/15 11:25:07;;;;;;;33.70;18.60;;;;;19.50;98937.80;;;;111065;1247;41148;-66
2022/03/15 11:27:41;;;;;;;37.50;17.30;;;;;19.38;98938.40;;;;110786;1250;41636;-65
2022/03/15 11:30:17;;;;;;;27.40;15.70;;;;;18.84;98933.60;;;;111070;1247;42028;-66
2022/03/15 11:32:47;;;;;;;26.60;13.90;;;;;18.84;98932.40;;;;110915;1247;41172;-66
2022/03/15 11:35:22;;;;;;;17.30;9.70;;;;;18.94;98927.00;;;;111080;1250;41250;-67
2022/03/15 11:37:53;;;;;;;23.30;11.20;;;;;20.32;98925.80;;;;111157;1247;41283;-67
2022/03/15 11:40:22;;;;;;;25.50;13.00;;;;;21.54;98914.20;;;;111156;1248;41245;-68
2022/03/15 11:43:09;;;;;;;28.70;15.30;;;;;21.70;98909.00;;;;111172;1247;41603;-66
2022/03/15 11:45:43;;;;;;;21.50;12.70;;;;;21.80;98909.60;;;;111124;1247;41158;-67
2022/03/15 11:48:31;;;;;;;26.10;12.90;;;;;21.66;98912.40;;;;110876;1249;41143;-67
2022/03/15 11:51:08;;;;;;;24.70;11.80;;;;;21.64;98907.20;;;;111141;1247;41258;-67
2022/03/15 11:53:53;;;;;;;20.70;10.70;;;;;22.40;98900.80;;;;111092;1247;41940;-67
2022/03/15 11:56:45;;;;;;;23.90;13.10;;;;;23.54;98897.20;;;;111047;1248;41261;-67
2022/03/15 11:59:15;;;;;;;26.00;14.60;;;;;24.00;98891.20;;;;110983;1247;41166;-68
2022/03/15 12:01:49;;;;;;;30.20;15.90;;;;;23.76;98887.80;;;;111099;1247;41266;-67
2022/03/15 12:04:28;;;;;;;22.80;12.90;;;;;22.38;98880.80;;;;111109;1248;41124;-67
2022/03/15 12:07:01;;;;;;;28.00;15.80;;;;;21.12;98886.00;;;;111057;1247;41824;-67
2022/03/15 12:09:31;;;;;;;30.20;15.60;;;;;20.20;98884.20;;;;110981;1247;41605;-67
2022/03/15 12:12:08;;;;;;;25.10;15.90;;;;;19.42;98884.60;;;;111091;1247;41390;-67
2022/03/15 12:14:51;;;;;;;31.80;16.10;;;;;18.56;98884.60;;;;111120;1247;41163;-68
2022/03/15 12:17:21;;;;;;;29.20;15.60;;;;;17.84;98878.40;;;;111063;1247;41658;-65
2022/03/15 12:19:51;;;;;;;23.80;12.90;;;;;18.26;98872.60;;;;111081;1247;41188;-67